sensor_id;sensor_type;location;lat;lon;timestamp;P1;durP1;ratioP1;P2;durP2;ratioP2
14007;SDS011;61651;45.508;12.232;2023-08-24T00:02:31;8.88;;;8.02;;
14007;SDS011;61651;45.508;12.232;2023-08-24T00:05:33;8.80;;;8.07;;
14007;SDS011;61651;45.508;12.232;2023-08-24T00:08:36;8.52;;;7.70;;
14007;SDS011;61651;45.508;12.232;2023-08-24T00:11:38;9.07;;;8.00;;
14007;SDS011;61651;45.508;12.232;2023-08-24T00:14:42;8.40;;;7.47;;
14007;SDS011;61651;45.508;12.232;2023-08-24T00:17:44;8.85;;;7.95;;
14007;SDS011;61651;45.508;12.232;2023-08-24T00:20:46;8.75;;;7.53;;
14007;SDS011;61651;45.508;12.232;2023-08-24T00:23:48;8.55;;;7.80;;
14007;SDS011;61651;45.508;12.232;2023-08-24T00:26:50;9.32;;;7.78;;
14007;SDS011;61651;45.508;12.232;2023-08-24T00:29:53;7.38;;;6.78;;
14007;SDS011;61651;45.508;12.232;2023-08-24T00:32:55;11.52;;;7.70;;
14007;SDS011;61651;45.508;12.232;2023-08-24T00:35:59;9.00;;;7.63;;
14007;SDS011;61651;45.508;12.232;2023-08-24T00:39:02;8.40;;;7.55;;
14007;SDS011;61651;45.508;12.232;2023-08-24T00:42:04;8.50;;;7.78;;
14007;SDS011;61651;45.508;12.232;2023-08-24T00:45:09;8.18;;;7.47;;
14007;SDS011;61651;45.508;12.232;2023-08-24T00:48:12;8.57;;;7.85;;
14007;SDS011;61651;45.508;12.232;2023-08-24T00:51:14;8.63;;;7.78;;
14007;SDS011;61651;45.508;12.232;2023-08-24T00:54:16;8.30;;;7.63;;
14007;SDS011;61651;45.508;12.232;2023-08-24T00:57:18;9.15;;;7.25;;
14007;SDS011;61651;45.508;12.232;2023-08-24T01:00:22;8.15;;;7.50;;
14007;SDS011;61651;45.508;12.232;2023-08-24T01:03:24;8.75;;;7.93;;
14007;SDS011;61651;45.508;12.232;2023-08-24T01:06:26;8.77;;;7.53;;
14007;SDS011;61651;45.508;12.232;2023-08-24T01:09:28;8.27;;;7.47;;
14007;SDS011;61651;45.508;12.232;2023-08-24T01:12:32;9.63;;;7.47;;
14007;SDS011;61651;45.508;12.232;2023-08-24T01:15:46;8.88;;;8.00;;
14007;SDS011;61651;45.508;12.232;2023-08-24T01:18:55;8.05;;;7.40;;
14007;SDS011;61651;45.508;12.232;2023-08-24T01:21:59;9.35;;;7.50;;
14007;SDS011;61651;45.508;12.232;2023-08-24T01:25:05;8.00;;;7.40;;
14007;SDS011;61651;45.508;12.232;2023-08-24T01:28:13;8.15;;;7.43;;
14007;SDS011;61651;45.508;12.232;2023-08-24T01:31:17;8.00;;;7.30;;
14007;SDS011;61651;45.508;12.232;2023-08-24T01:34:19;8.40;;;7.60;;
14007;SDS011;61651;45.508;12.232;2023-08-24T01:37:21;8.30;;;7.50;;
14007;SDS011;61651;45.508;12.232;2023-08-24T01:40:23;8.07;;;7.25;;
14007;SDS011;61651;45.508;12.232;2023-08-24T01:43:31;10.60;;;8.20;;
14007;SDS011;61651;45.508;12.232;2023-08-24T01:46:36;9.18;;;8.02;;
14007;SDS011;61651;45.508;12.232;2023-08-24T01:49:40;8.52;;;7.57;;
14007;SDS011;61651;45.508;12.232;2023-08-24T01:52:43;8.57;;;7.82;;
14007;SDS011;61651;45.508;12.232;2023-08-24T01:55:45;9.18;;;8.48;;
14007;SDS011;61651;45.508;12.232;2023-08-24T01:58:49;9.35;;;8.55;;
14007;SDS011;61651;45.508;12.232;2023-08-24T02:01:51;8.80;;;8.02;;
14007;SDS011;61651;45.508;12.232;2023-08-24T02:04:53;10.10;;;8.73;;
14007;SDS011;61651;45.508;12.232;2023-08-24T02:07:55;8.57;;;7.78;;
14007;SDS011;61651;45.508;12.232;2023-08-24T02:10:58;8.65;;;8.00;;
14007;SDS011;61651;45.508;12.232;2023-08-24T02:14:01;8.45;;;7.75;;
14007;SDS011;61651;45.508;12.232;2023-08-24T02:17:03;9.30;;;8.43;;
14007;SDS011;61651;45.508;12.232;2023-08-24T02:20:06;9.55;;;8.85;;
14007;SDS011;61651;45.508;12.232;2023-08-24T02:23:09;9.48;;;8.68;;
14007;SDS011;61651;45.508;12.232;2023-08-24T02:26:11;10.35;;;9.35;;
14007;SDS011;61651;45.508;12.232;2023-08-24T02:29:15;8.38;;;7.68;;
14007;SDS011;61651;45.508;12.232;2023-08-24T02:32:17;8.63;;;7.90;;
14007;SDS011;61651;45.508;12.232;2023-08-24T02:35:19;10.65;;;9.57;;
14007;SDS011;61651;45.508;12.232;2023-08-24T02:38:21;10.20;;;9.25;;
14007;SDS011;61651;45.508;12.232;2023-08-24T02:41:24;9.75;;;8.90;;
14007;SDS011;61651;45.508;12.232;2023-08-24T02:44:27;9.85;;;9.00;;
14007;SDS011;61651;45.508;12.232;2023-08-24T02:47:29;10.00;;;9.00;;
14007;SDS011;61651;45.508;12.232;2023-08-24T02:50:33;10.05;;;9.05;;
14007;SDS011;61651;45.508;12.232;2023-08-24T02:53:34;10.27;;;9.32;;
14007;SDS011;61651;45.508;12.232;2023-08-24T02:56:37;11.32;;;10.30;;
14007;SDS011;61651;45.508;12.232;2023-08-24T02:59:40;10.18;;;9.18;;
14007;SDS011;61651;45.508;12.232;2023-08-24T03:02:43;10.48;;;9.40;;
14007;SDS011;61651;45.508;12.232;2023-08-24T03:05:52;9.05;;;8.25;;
14007;SDS011;61651;45.508;12.232;2023-08-24T03:08:55;10.30;;;9.40;;
14007;SDS011;61651;45.508;12.232;2023-08-24T03:11:57;11.30;;;10.30;;
14007;SDS011;61651;45.508;12.232;2023-08-24T03:15:01;10.90;;;10.00;;
14007;SDS011;61651;45.508;12.232;2023-08-24T03:18:03;10.52;;;9.63;;
14007;SDS011;61651;45.508;12.232;2023-08-24T03:21:05;10.77;;;9.82;;
14007;SDS011;61651;45.508;12.232;2023-08-24T03:24:07;11.68;;;10.57;;
14007;SDS011;61651;45.508;12.232;2023-08-24T03:27:09;10.50;;;9.50;;
14007;SDS011;61651;45.508;12.232;2023-08-24T03:30:13;11.57;;;10.25;;
14007;SDS011;61651;45.508;12.232;2023-08-24T03:33:15;11.38;;;10.30;;
14007;SDS011;61651;45.508;12.232;2023-08-24T03:36:17;10.38;;;9.57;;
14007;SDS011;61651;45.508;12.232;2023-08-24T03:39:19;14.57;;;10.20;;
14007;SDS011;61651;45.508;12.232;2023-08-24T03:42:21;10.25;;;9.45;;
14007;SDS011;61651;45.508;12.232;2023-08-24T03:45:25;11.05;;;9.98;;
14007;SDS011;61651;45.508;12.232;2023-08-24T03:48:27;10.88;;;10.00;;
14007;SDS011;61651;45.508;12.232;2023-08-24T03:51:29;10.57;;;9.57;;
14007;SDS011;61651;45.508;12.232;2023-08-24T03:54:31;10.18;;;9.27;;
14007;SDS011;61651;45.508;12.232;2023-08-24T03:57:33;9.73;;;8.93;;
14007;SDS011;61651;45.508;12.232;2023-08-24T04:00:37;10.10;;;9.20;;
14007;SDS011;61651;45.508;12.232;2023-08-24T04:03:39;11.02;;;10.05;;
14007;SDS011;61651;45.508;12.232;2023-08-24T04:06:41;9.98;;;9.18;;
14007;SDS011;61651;45.508;12.232;2023-08-24T04:09:43;10.82;;;9.80;;
14007;SDS011;61651;45.508;12.232;2023-08-24T04:12:45;11.10;;;10.13;;
14007;SDS011;61651;45.508;12.232;2023-08-24T04:15:49;10.43;;;9.45;;
14007;SDS011;61651;45.508;12.232;2023-08-24T04:18:51;11.55;;;10.52;;
14007;SDS011;61651;45.508;12.232;2023-08-24T04:21:53;9.98;;;9.15;;
14007;SDS011;61651;45.508;12.232;2023-08-24T04:24:55;10.85;;;9.85;;
14007;SDS011;61651;45.508;12.232;2023-08-24T04:29:46;11.73;;;10.55;;
14007;SDS011;61651;45.508;12.232;2023-08-24T04:32:48;10.65;;;9.75;;
14007;SDS011;61651;45.508;12.232;2023-08-24T04:35:51;11.00;;;10.00;;
14007;SDS011;61651;45.508;12.232;2023-08-24T04:38:53;10.65;;;9.85;;
14007;SDS011;61651;45.508;12.232;2023-08-24T04:41:55;10.73;;;9.75;;
14007;SDS011;61651;45.508;12.232;2023-08-24T04:44:58;11.18;;;10.07;;
14007;SDS011;61651;45.508;12.232;2023-08-24T04:48:00;10.20;;;9.30;;
14007;SDS011;61651;45.508;12.232;2023-08-24T04:51:03;10.90;;;9.65;;
14007;SDS011;61651;45.508;12.232;2023-08-24T04:54:05;10.07;;;9.30;;
14007;SDS011;61651;45.508;12.232;2023-08-24T04:57:07;11.23;;;10.23;;
14007;SDS011;61651;45.508;12.232;2023-08-24T05:00:11;10.85;;;9.88;;
14007;SDS011;61651;45.508;12.232;2023-08-24T05:03:16;9.90;;;9.00;;
14007;SDS011;61651;45.508;12.232;2023-08-24T05:06:19;10.35;;;9.40;;
14007;SDS011;61651;45.508;12.232;2023-08-24T05:09:21;10.95;;;9.95;;
14007;SDS011;61651;45.508;12.232;2023-08-24T05:12:23;10.27;;;9.32;;
14007;SDS011;61651;45.508;12.232;2023-08-24T05:15:27;9.88;;;8.98;;
14007;SDS011;61651;45.508;12.232;2023-08-24T05:18:29;10.65;;;9.60;;
14007;SDS011;61651;45.508;12.232;2023-08-24T05:21:31;10.50;;;9.55;;
14007;SDS011;61651;45.508;12.232;2023-08-24T05:24:33;11.55;;;10.55;;
14007;SDS011;61651;45.508;12.232;2023-08-24T05:27:35;10.35;;;9.50;;
14007;SDS011;61651;45.508;12.232;2023-08-24T05:30:39;10.13;;;9.27;;
14007;SDS011;61651;45.508;12.232;2023-08-24T05:33:41;11.60;;;10.00;;
14007;SDS011;61651;45.508;12.232;2023-08-24T05:36:43;10.82;;;9.82;;
14007;SDS011;61651;45.508;12.232;2023-08-24T05:39:45;11.07;;;10.07;;
14007;SDS011;61651;45.508;12.232;2023-08-24T05:42:47;10.95;;;9.98;;
14007;SDS011;61651;45.508;12.232;2023-08-24T05:45:50;13.52;;;10.02;;
14007;SDS011;61651;45.508;12.232;2023-08-24T05:48:53;11.70;;;10.30;;
14007;SDS011;61651;45.508;12.232;2023-08-24T05:51:55;11.10;;;10.15;;
14007;SDS011;61651;45.508;12.232;2023-08-24T05:54:57;10.45;;;9.60;;
14007;SDS011;61651;45.508;12.232;2023-08-24T05:57:59;11.00;;;10.00;;
14007;SDS011;61651;45.508;12.232;2023-08-24T06:01:02;10.52;;;9.52;;
14007;SDS011;61651;45.508;12.232;2023-08-24T06:04:05;11.35;;;10.45;;
14007;SDS011;61651;45.508;12.232;2023-08-24T06:07:07;11.13;;;10.13;;
14007;SDS011;61651;45.508;12.232;2023-08-24T06:10:09;12.48;;;10.18;;
14007;SDS011;61651;45.508;12.232;2023-08-24T06:13:11;11.05;;;9.93;;
14007;SDS011;61651;45.508;12.232;2023-08-24T06:16:15;10.48;;;9.60;;
14007;SDS011;61651;45.508;12.232;2023-08-24T06:19:17;10.27;;;9.23;;
14007;SDS011;61651;45.508;12.232;2023-08-24T06:22:19;10.68;;;9.70;;
14007;SDS011;61651;45.508;12.232;2023-08-24T06:25:21;10.73;;;9.68;;
14007;SDS011;61651;45.508;12.232;2023-08-24T06:28:23;9.68;;;8.77;;
14007;SDS011;61651;45.508;12.232;2023-08-24T06:31:26;10.15;;;9.27;;
14007;SDS011;61651;45.508;12.232;2023-08-24T06:34:30;9.38;;;8.57;;
14007;SDS011;61651;45.508;12.232;2023-08-24T06:37:32;10.73;;;9.63;;
14007;SDS011;61651;45.508;12.232;2023-08-24T06:40:34;10.48;;;9.27;;
14007;SDS011;61651;45.508;12.232;2023-08-24T06:43:36;10.35;;;9.02;;
14007;SDS011;61651;45.508;12.232;2023-08-24T06:46:40;10.05;;;9.20;;
14007;SDS011;61651;45.508;12.232;2023-08-24T06:49:42;12.60;;;8.77;;
14007;SDS011;61651;45.508;12.232;2023-08-24T06:52:45;9.63;;;8.88;;
14007;SDS011;61651;45.508;12.232;2023-08-24T06:55:47;9.98;;;8.68;;
14007;SDS011;61651;45.508;12.232;2023-08-24T06:58:55;10.43;;;9.52;;
14007;SDS011;61651;45.508;12.232;2023-08-24T07:01:59;11.52;;;8.82;;
14007;SDS011;61651;45.508;12.232;2023-08-24T07:05:02;9.48;;;8.70;;
14007;SDS011;61651;45.508;12.232;2023-08-24T07:08:08;11.25;;;8.73;;
14007;SDS011;61651;45.508;12.232;2023-08-24T07:11:10;9.10;;;8.13;;
14007;SDS011;61651;45.508;12.232;2023-08-24T07:14:14;10.60;;;9.10;;
14007;SDS011;61651;45.508;12.232;2023-08-24T07:17:17;10.40;;;9.23;;
14007;SDS011;61651;45.508;12.232;2023-08-24T07:20:19;9.52;;;8.65;;
14007;SDS011;61651;45.508;12.232;2023-08-24T07:23:21;9.43;;;8.52;;
14007;SDS011;61651;45.508;12.232;2023-08-24T07:26:23;9.93;;;9.05;;
14007;SDS011;61651;45.508;12.232;2023-08-24T07:29:27;9.32;;;8.25;;
14007;SDS011;61651;45.508;12.232;2023-08-24T07:32:30;10.57;;;8.82;;
14007;SDS011;61651;45.508;12.232;2023-08-24T07:35:32;8.95;;;8.05;;
14007;SDS011;61651;45.508;12.232;2023-08-24T07:38:34;9.45;;;8.68;;
14007;SDS011;61651;45.508;12.232;2023-08-24T07:41:36;9.48;;;8.57;;
14007;SDS011;61651;45.508;12.232;2023-08-24T07:44:38;9.55;;;8.60;;
14007;SDS011;61651;45.508;12.232;2023-08-24T07:47:41;10.70;;;8.48;;
14007;SDS011;61651;45.508;12.232;2023-08-24T07:50:44;9.13;;;8.27;;
14007;SDS011;61651;45.508;12.232;2023-08-24T07:53:46;9.73;;;8.88;;
14007;SDS011;61651;45.508;12.232;2023-08-24T07:56:49;9.48;;;8.77;;
14007;SDS011;61651;45.508;12.232;2023-08-24T07:59:51;9.50;;;8.50;;
14007;SDS011;61651;45.508;12.232;2023-08-24T08:02:55;9.38;;;8.43;;
14007;SDS011;61651;45.508;12.232;2023-08-24T08:05:57;10.02;;;9.15;;
14007;SDS011;61651;45.508;12.232;2023-08-24T08:08:59;10.40;;;8.43;;
14007;SDS011;61651;45.508;12.232;2023-08-24T08:12:01;11.50;;;8.80;;
14007;SDS011;61651;45.508;12.232;2023-08-24T08:15:03;9.00;;;8.15;;
14007;SDS011;61651;45.508;12.232;2023-08-24T08:18:07;9.38;;;8.45;;
14007;SDS011;61651;45.508;12.232;2023-08-24T08:21:10;9.63;;;8.30;;
14007;SDS011;61651;45.508;12.232;2023-08-24T08:24:19;9.50;;;8.60;;
14007;SDS011;61651;45.508;12.232;2023-08-24T08:27:21;9.02;;;8.23;;
14007;SDS011;61651;45.508;12.232;2023-08-24T08:30:23;8.90;;;8.00;;
14007;SDS011;61651;45.508;12.232;2023-08-24T08:33:27;12.23;;;9.50;;
14007;SDS011;61651;45.508;12.232;2023-08-24T08:36:29;9.38;;;8.60;;
14007;SDS011;61651;45.508;12.232;2023-08-24T08:39:32;11.32;;;7.85;;
14007;SDS011;61651;45.508;12.232;2023-08-24T08:42:34;8.82;;;8.10;;
14007;SDS011;61651;45.508;12.232;2023-08-24T08:45:38;8.20;;;7.50;;
14007;SDS011;61651;45.508;12.232;2023-08-24T08:48:41;8.25;;;7.65;;
14007;SDS011;61651;45.508;12.232;2023-08-24T08:51:44;8.10;;;7.40;;
14007;SDS011;61651;45.508;12.232;2023-08-24T08:54:47;8.05;;;7.45;;
14007;SDS011;61651;45.508;12.232;2023-08-24T08:57:49;8.27;;;7.57;;
14007;SDS011;61651;45.508;12.232;2023-08-24T09:00:52;8.35;;;7.55;;
14007;SDS011;61651;45.508;12.232;2023-08-24T09:03:56;8.38;;;7.60;;
14007;SDS011;61651;45.508;12.232;2023-08-24T09:06:59;8.65;;;7.90;;
14007;SDS011;61651;45.508;12.232;2023-08-24T09:10:04;8.80;;;8.00;;
14007;SDS011;61651;45.508;12.232;2023-08-24T09:13:07;9.18;;;8.07;;
14007;SDS011;61651;45.508;12.232;2023-08-24T09:16:09;9.88;;;8.98;;
14007;SDS011;61651;45.508;12.232;2023-08-24T09:19:17;9.02;;;8.30;;
14007;SDS011;61651;45.508;12.232;2023-08-24T09:22:19;8.55;;;7.75;;
14007;SDS011;61651;45.508;12.232;2023-08-24T09:25:21;10.35;;;9.40;;
14007;SDS011;61651;45.508;12.232;2023-08-24T09:28:23;8.90;;;8.05;;
14007;SDS011;61651;45.508;12.232;2023-08-24T09:31:28;9.07;;;8.27;;
14007;SDS011;61651;45.508;12.232;2023-08-24T09:34:38;9.00;;;8.10;;
14007;SDS011;61651;45.508;12.232;2023-08-24T09:37:40;8.25;;;7.65;;
14007;SDS011;61651;45.508;12.232;2023-08-24T09:40:45;8.52;;;7.72;;
14007;SDS011;61651;45.508;12.232;2023-08-24T09:43:48;8.10;;;7.28;;
14007;SDS011;61651;45.508;12.232;2023-08-24T09:46:50;8.65;;;7.85;;
14007;SDS011;61651;45.508;12.232;2023-08-24T09:49:54;8.50;;;7.70;;
14007;SDS011;61651;45.508;12.232;2023-08-24T09:52:56;9.80;;;8.85;;
14007;SDS011;61651;45.508;12.232;2023-08-24T09:56:02;9.60;;;8.32;;
14007;SDS011;61651;45.508;12.232;2023-08-24T09:59:10;8.85;;;8.05;;
14007;SDS011;61651;45.508;12.232;2023-08-24T10:02:14;9.13;;;8.37;;
14007;SDS011;61651;45.508;12.232;2023-08-24T10:05:26;9.75;;;8.70;;
14007;SDS011;61651;45.508;12.232;2023-08-24T10:08:32;9.00;;;8.25;;
14007;SDS011;61651;45.508;12.232;2023-08-24T10:11:39;8.90;;;8.05;;
14007;SDS011;61651;45.508;12.232;2023-08-24T10:14:51;9.10;;;8.27;;
14007;SDS011;61651;45.508;12.232;2023-08-24T10:18:03;8.75;;;7.93;;
14007;SDS011;61651;45.508;12.232;2023-08-24T10:21:08;9.02;;;8.15;;
14007;SDS011;61651;45.508;12.232;2023-08-24T10:24:10;8.48;;;7.78;;
14007;SDS011;61651;45.508;12.232;2023-08-24T12:34:43;9.45;;;8.57;;
14007;SDS011;61651;45.508;12.232;2023-08-24T12:37:45;14.23;;;9.20;;
14007;SDS011;61651;45.508;12.232;2023-08-24T12:40:47;11.38;;;9.18;;
14007;SDS011;61651;45.508;12.232;2023-08-24T12:43:49;13.07;;;8.82;;
14007;SDS011;61651;45.508;12.232;2023-08-24T12:46:52;10.20;;;9.15;;
14007;SDS011;61651;45.508;12.232;2023-08-24T12:49:55;11.20;;;8.25;;
14007;SDS011;61651;45.508;12.232;2023-08-24T12:52:57;10.38;;;8.80;;
14007;SDS011;61651;45.508;12.232;2023-08-24T12:56:00;9.95;;;9.13;;
14007;SDS011;61651;45.508;12.232;2023-08-24T12:59:02;10.30;;;8.55;;
14007;SDS011;61651;45.508;12.232;2023-08-24T13:02:04;9.32;;;8.43;;
14007;SDS011;61651;45.508;12.232;2023-08-24T13:05:08;9.90;;;8.60;;
14007;SDS011;61651;45.508;12.232;2023-08-24T13:08:10;9.75;;;8.80;;
14007;SDS011;61651;45.508;12.232;2023-08-24T13:11:12;11.65;;;9.07;;
14007;SDS011;61651;45.508;12.232;2023-08-24T13:14:14;10.10;;;8.95;;
14007;SDS011;61651;45.508;12.232;2023-08-24T13:17:16;9.93;;;8.05;;
14007;SDS011;61651;45.508;12.232;2023-08-24T13:20:20;9.73;;;8.80;;
14007;SDS011;61651;45.508;12.232;2023-08-24T13:23:22;8.82;;;7.97;;
14007;SDS011;61651;45.508;12.232;2023-08-24T13:26:24;10.40;;;9.40;;
14007;SDS011;61651;45.508;12.232;2023-08-24T13:29:26;9.68;;;8.25;;
14007;SDS011;61651;45.508;12.232;2023-08-24T13:32:28;8.77;;;8.15;;
14007;SDS011;61651;45.508;12.232;2023-08-24T13:35:31;12.10;;;8.20;;
14007;SDS011;61651;45.508;12.232;2023-08-24T13:38:34;9.52;;;8.73;;
14007;SDS011;61651;45.508;12.232;2023-08-24T13:41:36;10.40;;;8.55;;
14007;SDS011;61651;45.508;12.232;2023-08-24T13:44:38;11.38;;;8.80;;
14007;SDS011;61651;45.508;12.232;2023-08-24T13:47:40;9.93;;;8.88;;
14007;SDS011;61651;45.508;12.232;2023-08-24T13:50:48;8.55;;;7.90;;
14007;SDS011;61651;45.508;12.232;2023-08-24T13:53:51;9.70;;;8.70;;
14007;SDS011;61651;45.508;12.232;2023-08-24T13:56:52;9.35;;;8.63;;
14007;SDS011;61651;45.508;12.232;2023-08-24T13:59:55;8.85;;;7.97;;
14007;SDS011;61651;45.508;12.232;2023-08-24T14:02:57;8.52;;;7.78;;
14007;SDS011;61651;45.508;12.232;2023-08-24T14:06:00;9.60;;;8.13;;
14007;SDS011;61651;45.508;12.232;2023-08-24T14:09:02;8.70;;;7.68;;
14007;SDS011;61651;45.508;12.232;2023-08-24T14:12:05;8.27;;;7.55;;
14007;SDS011;61651;45.508;12.232;2023-08-24T14:15:08;8.90;;;8.05;;
14007;SDS011;61651;45.508;12.232;2023-08-24T14:18:11;8.68;;;7.88;;
14007;SDS011;61651;45.508;12.232;2023-08-24T14:21:14;9.05;;;8.25;;
14007;SDS011;61651;45.508;12.232;2023-08-24T14:24:17;8.18;;;7.40;;
14007;SDS011;61651;45.508;12.232;2023-08-24T14:27:19;9.00;;;8.02;;
14007;SDS011;61651;45.508;12.232;2023-08-24T14:30:21;8.30;;;7.50;;
14007;SDS011;61651;45.508;12.232;2023-08-24T14:33:23;8.82;;;8.00;;
14007;SDS011;61651;45.508;12.232;2023-08-24T14:36:28;9.38;;;7.68;;
14007;SDS011;61651;45.508;12.232;2023-08-24T14:39:31;8.20;;;7.40;;
14007;SDS011;61651;45.508;12.232;2023-08-24T14:42:33;8.80;;;7.75;;
14007;SDS011;61651;45.508;12.232;2023-08-24T14:45:35;8.52;;;7.38;;
14007;SDS011;61651;45.508;12.232;2023-08-24T14:48:37;14.45;;;7.55;;
14007;SDS011;61651;45.508;12.232;2023-08-24T14:51:40;8.27;;;7.47;;
14007;SDS011;61651;45.508;12.232;2023-08-24T14:54:42;8.50;;;7.60;;
14007;SDS011;61651;45.508;12.232;2023-08-24T14:57:45;8.18;;;7.18;;
14007;SDS011;61651;45.508;12.232;2023-08-24T15:00:47;8.10;;;7.38;;
14007;SDS011;61651;45.508;12.232;2023-08-24T15:03:49;8.15;;;7.13;;
14007;SDS011;61651;45.508;12.232;2023-08-24T15:06:53;7.38;;;6.63;;
14007;SDS011;61651;45.508;12.232;2023-08-24T15:09:55;7.93;;;6.68;;
14007;SDS011;61651;45.508;12.232;2023-08-24T15:12:57;8.10;;;6.80;;
14007;SDS011;61651;45.508;12.232;2023-08-24T15:15:59;8.60;;;5.95;;
14007;SDS011;61651;45.508;12.232;2023-08-24T15:19:01;10.18;;;7.00;;
14007;SDS011;61651;45.508;12.232;2023-08-24T15:22:04;8.60;;;7.10;;
14007;SDS011;61651;45.508;12.232;2023-08-24T15:25:07;7.40;;;6.03;;
14007;SDS011;61651;45.508;12.232;2023-08-24T15:28:09;7.28;;;6.68;;
14007;SDS011;61651;45.508;12.232;2023-08-24T15:31:11;7.47;;;6.75;;
14007;SDS011;61651;45.508;12.232;2023-08-24T15:34:13;9.23;;;7.65;;
14007;SDS011;61651;45.508;12.232;2023-08-24T15:37:16;8.25;;;7.10;;
14007;SDS011;61651;45.508;12.232;2023-08-24T15:40:18;7.80;;;7.15;;
14007;SDS011;61651;45.508;12.232;2023-08-24T15:43:20;7.95;;;7.18;;
14007;SDS011;61651;45.508;12.232;2023-08-24T15:46:22;7.72;;;7.03;;
14007;SDS011;61651;45.508;12.232;2023-08-24T15:49:24;7.97;;;7.38;;
14007;SDS011;61651;45.508;12.232;2023-08-24T15:52:28;7.22;;;6.63;;
14007;SDS011;61651;45.508;12.232;2023-08-24T15:55:30;10.40;;;7.40;;
14007;SDS011;61651;45.508;12.232;2023-08-24T15:58:32;7.47;;;6.88;;
14007;SDS011;61651;45.508;12.232;2023-08-24T16:01:34;7.18;;;6.63;;
14007;SDS011;61651;45.508;12.232;2023-08-24T16:04:36;8.20;;;7.00;;
14007;SDS011;61651;45.508;12.232;2023-08-24T16:07:39;7.43;;;6.82;;
14007;SDS011;61651;45.508;12.232;2023-08-24T16:10:41;12.48;;;11.18;;
14007;SDS011;61651;45.508;12.232;2023-08-24T16:13:44;8.88;;;8.10;;
14007;SDS011;61651;45.508;12.232;2023-08-24T16:16:46;10.13;;;6.20;;
14007;SDS011;61651;45.508;12.232;2023-08-24T16:19:48;7.35;;;6.40;;
14007;SDS011;61651;45.508;12.232;2023-08-24T16:22:51;7.07;;;6.47;;
14007;SDS011;61651;45.508;12.232;2023-08-24T16:25:53;7.18;;;6.53;;
14007;SDS011;61651;45.508;12.232;2023-08-24T16:28:55;8.38;;;7.57;;
14007;SDS011;61651;45.508;12.232;2023-08-24T16:31:57;7.78;;;7.00;;
14007;SDS011;61651;45.508;12.232;2023-08-24T16:34:59;8.68;;;7.65;;
14007;SDS011;61651;45.508;12.232;2023-08-24T16:38:03;8.02;;;7.28;;
14007;SDS011;61651;45.508;12.232;2023-08-24T16:41:05;7.53;;;6.93;;
14007;SDS011;61651;45.508;12.232;2023-08-24T16:44:07;8.45;;;7.75;;
14007;SDS011;61651;45.508;12.232;2023-08-24T16:47:09;10.73;;;8.80;;
14007;SDS011;61651;45.508;12.232;2023-08-24T16:50:11;9.52;;;7.65;;
14007;SDS011;61651;45.508;12.232;2023-08-24T16:53:14;14.32;;;13.00;;
14007;SDS011;61651;45.508;12.232;2023-08-24T16:56:16;11.25;;;8.00;;
14007;SDS011;61651;45.508;12.232;2023-08-24T16:59:19;7.88;;;7.28;;
14007;SDS011;61651;45.508;12.232;2023-08-24T17:02:21;8.50;;;7.10;;
14007;SDS011;61651;45.508;12.232;2023-08-24T17:05:23;8.50;;;7.50;;
14007;SDS011;61651;45.508;12.232;2023-08-24T17:08:26;9.32;;;7.55;;
14007;SDS011;61651;45.508;12.232;2023-08-24T17:11:28;9.95;;;7.75;;
14007;SDS011;61651;45.508;12.232;2023-08-24T17:14:30;8.85;;;8.00;;
14007;SDS011;61651;45.508;12.232;2023-08-24T17:17:32;11.02;;;8.98;;
14007;SDS011;61651;45.508;12.232;2023-08-24T17:20:34;10.00;;;8.98;;
14007;SDS011;61651;45.508;12.232;2023-08-24T17:23:38;8.50;;;7.78;;
14007;SDS011;61651;45.508;12.232;2023-08-24T17:26:40;9.23;;;8.50;;
14007;SDS011;61651;45.508;12.232;2023-08-24T17:29:42;10.52;;;8.75;;
14007;SDS011;61651;45.508;12.232;2023-08-24T17:32:44;11.88;;;8.50;;
14007;SDS011;61651;45.508;12.232;2023-08-24T17:35:46;9.95;;;8.95;;
14007;SDS011;61651;45.508;12.232;2023-08-24T17:38:51;10.90;;;9.18;;
14007;SDS011;61651;45.508;12.232;2023-08-24T17:41:54;9.52;;;8.38;;
14007;SDS011;61651;45.508;12.232;2023-08-24T17:44:56;9.32;;;8.38;;
14007;SDS011;61651;45.508;12.232;2023-08-24T17:47:57;12.07;;;8.98;;
14007;SDS011;61651;45.508;12.232;2023-08-24T17:51:00;9.40;;;8.63;;
14007;SDS011;61651;45.508;12.232;2023-08-24T17:54:07;9.40;;;8.60;;
14007;SDS011;61651;45.508;12.232;2023-08-24T17:57:09;9.32;;;8.30;;
14007;SDS011;61651;45.508;12.232;2023-08-24T18:00:11;9.02;;;8.23;;
14007;SDS011;61651;45.508;12.232;2023-08-24T18:03:13;9.60;;;8.70;;
14007;SDS011;61651;45.508;12.232;2023-08-24T18:06:15;11.50;;;8.88;;
14007;SDS011;61651;45.508;12.232;2023-08-24T18:09:19;14.25;;;9.05;;
14007;SDS011;61651;45.508;12.232;2023-08-24T18:12:21;15.68;;;8.77;;
14007;SDS011;61651;45.508;12.232;2023-08-24T18:15:23;15.13;;;9.40;;
14007;SDS011;61651;45.508;12.232;2023-08-24T18:18:25;9.82;;;9.00;;
14007;SDS011;61651;45.508;12.232;2023-08-24T18:21:27;10.43;;;9.40;;
14007;SDS011;61651;45.508;12.232;2023-08-24T18:24:31;10.45;;;9.55;;
14007;SDS011;61651;45.508;12.232;2023-08-24T18:27:33;10.57;;;9.65;;
14007;SDS011;61651;45.508;12.232;2023-08-24T18:30:35;11.00;;;9.93;;
14007;SDS011;61651;45.508;12.232;2023-08-24T18:33:37;9.98;;;8.98;;
14007;SDS011;61651;45.508;12.232;2023-08-24T18:36:38;10.68;;;9.68;;
14007;SDS011;61651;45.508;12.232;2023-08-24T18:39:42;12.40;;;9.68;;
14007;SDS011;61651;45.508;12.232;2023-08-24T18:42:44;11.88;;;9.32;;
14007;SDS011;61651;45.508;12.232;2023-08-24T18:45:52;11.43;;;10.00;;
14007;SDS011;61651;45.508;12.232;2023-08-24T18:48:55;15.93;;;10.77;;
14007;SDS011;61651;45.508;12.232;2023-08-24T18:51:57;12.45;;;11.25;;
14007;SDS011;61651;45.508;12.232;2023-08-24T18:55:00;15.50;;;11.10;;
14007;SDS011;61651;45.508;12.232;2023-08-24T18:58:02;11.73;;;10.63;;
14007;SDS011;61651;45.508;12.232;2023-08-24T19:01:04;13.65;;;10.60;;
14007;SDS011;61651;45.508;12.232;2023-08-24T19:04:06;12.50;;;11.30;;
14007;SDS011;61651;45.508;12.232;2023-08-24T19:07:08;14.25;;;11.02;;
14007;SDS011;61651;45.508;12.232;2023-08-24T19:10:12;11.90;;;10.73;;
14007;SDS011;61651;45.508;12.232;2023-08-24T19:13:14;17.48;;;11.88;;
14007;SDS011;61651;45.508;12.232;2023-08-24T19:16:16;13.30;;;10.60;;
14007;SDS011;61651;45.508;12.232;2023-08-24T19:19:18;13.25;;;11.65;;
14007;SDS011;61651;45.508;12.232;2023-08-24T19:22:20;12.88;;;11.57;;
14007;SDS011;61651;45.508;12.232;2023-08-24T19:25:23;12.10;;;10.90;;
14007;SDS011;61651;45.508;12.232;2023-08-24T19:28:25;12.43;;;11.35;;
14007;SDS011;61651;45.508;12.232;2023-08-24T19:31:27;16.38;;;12.18;;
14007;SDS011;61651;45.508;12.232;2023-08-24T19:34:29;14.82;;;11.13;;
14007;SDS011;61651;45.508;12.232;2023-08-24T19:37:31;11.57;;;10.55;;
14007;SDS011;61651;45.508;12.232;2023-08-24T19:40:36;13.75;;;12.55;;
14007;SDS011;61651;45.508;12.232;2023-08-24T19:43:38;12.48;;;11.38;;
14007;SDS011;61651;45.508;12.232;2023-08-24T19:46:40;12.30;;;11.30;;
14007;SDS011;61651;45.508;12.232;2023-08-24T19:49:42;11.90;;;10.88;;
14007;SDS011;61651;45.508;12.232;2023-08-24T19:52:44;12.57;;;11.43;;
14007;SDS011;61651;45.508;12.232;2023-08-24T19:55:47;13.23;;;11.77;;
14007;SDS011;61651;45.508;12.232;2023-08-24T19:58:49;12.90;;;11.60;;
14007;SDS011;61651;45.508;12.232;2023-08-24T20:01:51;11.85;;;10.75;;
14007;SDS011;61651;45.508;12.232;2023-08-24T20:04:53;12.65;;;11.55;;